Time;durP1;ratioP1;P1;durP2;ratioP2;P2;SDS_P1;SDS_P2;PMS_P1;PMS_P2;Temp;Humidity;BMP_temperature;BMP_pressure;BME280_temperature;BME280_humidity;BME280_pressure;Samples;Min_cycle;Max_cycle;Signal;HPM_P1;HPM_P2
2021/05/20 00:00:11;;;;;;;2.50;2.30;;;;;;;14.12;55.47;101135.69;694301;28;44114;-63
2021/05/20 00:00:32;;;;;;;2.67;2.47;;;;;;;14.12;56.09;101144.72;694441;28;39788;-63
2021/05/20 00:00:53;;;;;;;2.58;2.38;;;;;;;14.12;55.97;101138.41;695739;28;15607;-63
2021/05/20 00:01:14;;;;;;;3.17;2.40;;;;;;;14.11;56.29;101134.88;696143;28;11706;-63
2021/05/20 00:01:36;;;;;;;2.67;2.33;;;;;;;14.09;56.10;101134.22;695601;28;22404;-62
2021/05/20 00:01:57;;;;;;;4.72;2.45;;;;;;;14.11;56.26;101129.44;694776;28;46320;-63
2021/05/20 00:02:20;;;;;;;3.42;2.28;;;;;;;14.10;56.61;101138.59;692216;28;20644;-63
2021/05/20 00:02:41;;;;;;;2.50;2.33;;;;;;;14.10;56.61;101133.19;690608;28;69391;-63
2021/05/20 00:03:02;;;;;;;2.65;2.45;;;;;;;14.10;56.80;101133.19;692666;28;23393;-63
2021/05/20 00:03:24;;;;;;;2.63;2.47;;;;;;;14.09;56.49;101131.50;692139;28;22634;-63
2021/05/20 00:03:45;;;;;;;2.65;2.45;;;;;;;14.07;57.01;101133.56;691108;28;44406;-63
2021/05/20 00:04:06;;;;;;;2.83;2.63;;;;;;;14.05;56.89;101136.47;693465;28;22364;-63
2021/05/20 00:04:27;;;;;;;2.70;2.50;;;;;;;14.05;57.00;101135.63;695632;28;22199;-63
2021/05/20 00:04:49;;;;;;;2.47;2.30;;;;;;;14.05;56.85;101138.34;695551;28;22378;-63
2021/05/20 00:05:11;;;;;;;2.60;2.40;;;;;;;14.02;56.84;101134.13;694302;28;22522;-63
2021/05/20 00:05:33;;;;;;;3.20;2.85;;;;;;;14.04;56.86;101133.94;692897;28;69455;-63
2021/05/20 00:05:54;;;;;;;2.90;2.70;;;;;;;14.03;57.02;101133.09;695315;28;22435;-63
2021/05/20 00:06:15;;;;;;;2.80;2.60;;;;;;;14.03;57.11;101138.53;695902;28;11660;-63
2021/05/20 00:06:36;;;;;;;2.58;2.38;;;;;;;14.05;56.85;101139.19;695556;28;17734;-63
2021/05/20 00:06:57;;;;;;;2.70;2.50;;;;;;;14.05;56.94;101133.75;695407;28;22660;-63
2021/05/20 00:07:18;;;;;;;2.85;2.60;;;;;;;14.05;56.91;101132.91;695298;28;22421;-63
2021/05/20 00:07:39;;;;;;;2.92;2.60;;;;;;;14.04;57.08;101137.50;695489;28;21499;-64
2021/05/20 00:08:01;;;;;;;2.50;2.28;;;;;;;14.04;57.17;101134.81;695624;28;23517;-63
2021/05/20 00:08:22;;;;;;;2.78;2.20;;;;;;;14.03;56.98;101132.28;694085;28;45234;-63
2021/05/20 00:08:43;;;;;;;2.70;2.50;;;;;;;14.02;57.34;101134.13;694240;28;23498;-63
2021/05/20 00:09:05;;;;;;;2.63;2.50;;;;;;;14.03;57.53;101133.09;694738;28;22126;-63
2021/05/20 00:09:26;;;;;;;2.58;2.47;;;;;;;14.03;57.54;101135.00;694384;28;22419;-63
2021/05/20 00:09:47;;;;;;;2.60;2.47;;;;;;;14.02;57.05;101134.13;695026;28;22447;-63
2021/05/20 00:10:10;;;;;;;3.13;2.80;;;;;;;14.04;57.54;101131.22;694696;28;44399;-63
2021/05/20 00:10:31;;;;;;;2.90;2.70;;;;;;;14.02;58.13;101136.84;693265;28;43583;-63
2021/05/20 00:10:52;;;;;;;2.65;2.55;;;;;;;14.02;58.66;101128.69;694175;28;23556;-63
2021/05/20 00:11:14;;;;;;;2.60;2.45;;;;;;;14.00;58.57;101127.22;695665;28;22411;-63
2021/05/20 00:11:35;;;;;;;2.58;2.38;;;;;;;14.01;58.52;101131.59;693922;28;45249;-62
2021/05/20 00:11:56;;;;;;;2.65;2.47;;;;;;;14.01;58.54;101131.59;694857;28;21532;-63
2021/05/20 00:12:17;;;;;;;2.67;2.50;;;;;;;14.00;58.58;101141.63;695471;28;6478;-63
2021/05/20 00:12:39;;;;;;;2.83;2.63;;;;;;;14.00;58.73;101136.19;695376;28;22417;-63
2021/05/20 00:13:00;;;;;;;2.88;2.70;;;;;;;13.99;59.01;101139.94;694651;28;44420;-63
2021/05/20 00:13:21;;;;;;;2.85;2.65;;;;;;;13.98;59.53;101132.84;695270;28;23624;-63
2021/05/20 00:13:42;;;;;;;2.60;2.50;;;;;;;13.98;60.11;101135.56;694173;28;46378;-63
2021/05/20 00:14:03;;;;;;;2.80;2.60;;;;;;;13.98;60.35;101134.69;694599;28;45262;-63
2021/05/20 00:14:27;;;;;;;2.80;2.60;;;;;;;13.96;60.38;101137.59;694849;28;46415;-63
2021/05/20 00:14:49;;;;;;;2.90;2.70;;;;;;;13.95;60.86;101133.22;692750;28;90101;-63
2021/05/20 00:15:12;;;;;;;2.70;2.50;;;;;;;13.94;60.45;101139.66;694080;28;44647;-63
2021/05/20 00:15:33;;;;;;;2.65;2.55;;;;;;;13.92;60.67;101133.59;693201;28;69540;-63
2021/05/20 00:15:54;;;;;;;3.10;2.90;;;;;;;13.91;60.30;101140.06;695468;28;20871;-63
2021/05/20 00:16:15;;;;;;;3.00;2.80;;;;;;;13.91;60.70;101133.78;695706;28;19313;-63
2021/05/20 00:16:36;;;;;;;2.70;2.60;;;;;;;13.89;60.22;101139.41;695799;28;21541;-63
2021/05/20 00:16:58;;;;;;;2.90;2.72;;;;;;;13.90;60.62;101141.06;694700;28;44405;-63
2021/05/20 00:17:19;;;;;;;2.92;2.72;;;;;;;13.87;60.80;101139.59;695110;28;23407;-63
2021/05/20 00:17:40;;;;;;;2.78;2.58;;;;;;;13.86;61.16;101139.78;696300;28;3351;-63
2021/05/20 00:18:01;;;;;;;2.95;2.65;;;;;;;13.84;61.12;101137.25;694848;28;22638;-63
2021/05/20 00:18:22;;;;;;;2.60;2.40;;;;;;;13.85;61.41;101140.81;694571;28;21560;-64
2021/05/20 00:18:43;;;;;;;2.83;2.63;;;;;;;13.85;60.92;101140.81;694244;28;23418;-63
2021/05/20 00:19:05;;;;;;;2.75;2.55;;;;;;;13.84;60.87;101139.97;693862;28;45248;-63
2021/05/20 00:19:26;;;;;;;2.75;2.63;;;;;;;13.84;60.61;101139.09;694652;28;21541;-62
2021/05/20 00:19:48;;;;;;;2.90;2.70;;;;;;;13.83;60.91;101140.16;691732;28;46335;-63
2021/05/20 00:20:10;;;;;;;2.83;2.63;;;;;;;13.83;60.73;101140.16;694260;28;23511;-62
2021/05/20 00:20:31;;;;;;;3.70;2.80;;;;;;;13.85;60.17;101138.09;694040;28;43692;-62
2021/05/20 00:20:52;;;;;;;4.07;2.63;;;;;;;13.85;59.96;101138.91;694447;28;22411;-63
2021/05/20 00:21:13;;;;;;;2.70;2.50;;;;;;;13.87;60.29;101141.44;694709;28;21534;-63
2021/05/20 00:21:35;;;;;;;2.70;2.50;;;;;;;13.87;59.79;101144.16;694732;28;22413;-62
2021/05/20 00:21:56;;;;;;;2.72;2.60;;;;;;;13.86;59.97;101139.78;694377;28;39114;-62
2021/05/20 00:22:17;;;;;;;3.13;2.92;;;;;;;13.87;59.42;101141.44;694826;28;14782;-63
2021/05/20 00:22:38;;;;;;;3.03;2.75;;;;;;;13.85;59.68;101141.63;695526;28;23904;-63
2021/05/20 00:22:59;;;;;;;2.65;2.45;;;;;;;13.85;59.54;101146.22;695468;28;23455;-63
2021/05/20 00:23:21;;;;;;;2.65;2.50;;;;;;;13.83;59.79;101142.88;695301;28;22389;-63
2021/05/20 00:23:42;;;;;;;2.90;2.47;;;;;;;13.83;59.87;101140.16;695249;28;22430;-63
2021/05/20 00:24:04;;;;;;;3.05;2.60;;;;;;;13.81;59.80;101147.66;695521;28;24338;-63
2021/05/20 00:24:25;;;;;;;2.72;2.55;;;;;;;13.80;59.96;101152.22;693912;28;69383;-63
2021/05/20 00:24:46;;;;;;;3.00;2.80;;;;;;;13.79;59.95;101147.84;694784;28;23545;-63
2021/05/20 00:25:08;;;;;;;2.95;2.75;;;;;;;13.78;59.90;101151.59;695095;28;19623;-63
2021/05/20 00:25:29;;;;;;;3.20;2.83;;;;;;;13.77;59.96;101152.59;693836;28;44227;-63
2021/05/20 00:25:50;;;;;;;3.42;2.80;;;;;;;13.78;60.13;101151.59;695229;28;24384;-63
2021/05/20 00:26:13;;;;;;;3.75;2.90;;;;;;;13.77;59.92;101155.31;695741;28;19226;-63
2021/05/20 00:26:34;;;;;;;3.05;2.80;;;;;;;13.77;59.86;101152.59;694047;28;63990;-63
2021/05/20 00:26:55;;;;;;;2.80;2.60;;;;;;;13.78;60.10;101151.59;695642;28;17486;-63
2021/05/20 00:27:16;;;;;;;2.90;2.70;;;;;;;13.77;60.07;101158.03;695210;28;19228;-63
2021/05/20 00:27:37;;;;;;;3.10;2.90;;;;;;;13.77;59.46;101149.88;695297;28;11518;-63
2021/05/20 00:27:58;;;;;;;2.95;2.75;;;;;;;13.75;59.69;101154.66;694595;28;23459;-63
2021/05/20 00:28:20;;;;;;;2.85;2.65;;;;;;;13.74;60.01;101150.25;695433;28;4843;-63
2021/05/20 00:28:42;;;;;;;3.00;2.70;;;;;;;13.72;60.03;101155.03;694239;28;23487;-63
2021/05/20 00:29:03;;;;;;;3.10;2.85;;;;;;;13.72;60.04;101154.22;694025;28;46355;-63
2021/05/20 00:29:24;;;;;;;3.10;2.90;;;;;;;13.70;59.97;101160.66;694621;28;23650;-63
2021/05/20 00:29:46;;;;;;;2.78;2.58;;;;;;;13.68;60.13;101154.59;695057;28;22442;-63
2021/05/20 00:30:10;;;;;;;2.88;2.67;;;;;;;13.67;60.19;101152.06;694618;28;45273;-63
2021/05/20 00:30:31;;;;;;;2.92;2.72;;;;;;;13.69;59.92;101152.72;691763;28;113560;-63
2021/05/20 00:30:52;;;;;;;3.05;2.85;;;;;;;13.68;59.75;101156.44;694499;28;46354;-63
2021/05/20 00:31:14;;;;;;;3.10;2.90;;;;;;;13.68;60.13;101157.31;694935;28;22535;-63
2021/05/20 00:31:35;;;;;;;2.88;2.70;;;;;;;13.66;59.73;101150.38;694977;28;21556;-63
2021/05/20 00:31:56;;;;;;;2.95;2.75;;;;;;;13.67;59.75;101154.78;694880;28;21286;-63
2021/05/20 00:32:17;;;;;;;2.70;2.60;;;;;;;13.65;60.30;101160.38;693522;28;45312;-63
2021/05/20 00:32:39;;;;;;;3.20;3.00;;;;;;;13.63;60.30;101154.28;695275;28;22562;-63
2021/05/20 00:33:00;;;;;;;3.10;2.90;;;;;;;13.63;60.34;101165.13;695285;28;19509;-63
2021/05/20 00:33:21;;;;;;;3.38;3.08;;;;;;;13.64;60.35;101155.16;694822;28;22393;-63
2021/05/20 00:33:42;;;;;;;3.15;2.95;;;;;;;13.62;60.48;101157.19;695670;28;1821;-63
2021/05/20 00:34:05;;;;;;;3.05;2.88;;;;;;;13.62;60.25;101158.06;695002;28;21438;-63
2021/05/20 00:34:26;;;;;;;3.35;3.15;;;;;;;13.60;60.36;101154.66;693068;28;69721;-63
2021/05/20 00:34:47;;;;;;;3.20;3.00;;;;;;;13.63;60.33;101161.59;694348;28;22435;-63
2021/05/20 00:35:08;;;;;;;2.80;2.60;;;;;;;13.63;60.27;101151.56;694912;28;24333;-63
2021/05/20 00:35:29;;;;;;;3.05;2.75;;;;;;;13.62;60.15;101154.47;693691;28;46330;-63
2021/05/20 00:35:51;;;;;;;3.08;2.88;;;;;;;13.60;59.89;101162.81;695476;28;22395;-63
2021/05/20 00:36:12;;;;;;;3.10;2.90;;;;;;;13.60;59.90;101160.09;695570;28;15038;-63
2021/05/20 00:36:33;;;;;;;3.17;2.97;;;;;;;13.58;60.45;101158.59;692319;28;19385;-63
2021/05/20 00:36:54;;;;;;;3.00;2.80;;;;;;;13.57;60.10;101157.75;692317;28;24324;-63
2021/05/20 00:37:15;;;;;;;3.10;2.90;;;;;;;13.57;60.61;101160.47;691956;28;9232;-63
2021/05/20 00:37:37;;;;;;;2.97;2.78;;;;;;;13.56;60.08;101155.22;692540;28;23536;-63
2021/05/20 00:37:58;;;;;;;3.35;2.80;;;;;;;13.55;60.16;101162.53;687807;28;48299;-63
2021/05/20 00:38:19;;;;;;;3.60;3.20;;;;;;;13.54;60.17;101158.13;691861;28;11862;-63
2021/05/20 00:38:40;;;;;;;3.13;2.83;;;;;;;13.54;60.49;101158.13;693710;28;23456;-63
2021/05/20 00:39:02;;;;;;;3.03;2.83;;;;;;;13.54;60.69;101154.56;693803;28;23586;-63
2021/05/20 00:39:24;;;;;;;3.30;3.00;;;;;;;13.52;60.29;101152.88;691192;28;69505;-63
2021/05/20 00:39:45;;;;;;;3.00;2.80;;;;;;;13.51;60.83;101150.34;692886;28;45345;-63
2021/05/20 00:40:07;;;;;;;3.17;2.97;;;;;;;13.50;60.29;101154.94;695571;28;22403;-63
2021/05/20 00:40:29;;;;;;;2.97;2.78;;;;;;;13.48;60.89;101150.75;694136;28;44381;-63
2021/05/20 00:40:50;;;;;;;2.80;2.60;;;;;;;13.49;61.04;101160.56;694253;28;43675;-63
2021/05/20 00:41:11;;;;;;;2.90;2.80;;;;;;;13.48;61.06;101158.88;694748;28;23424;-63
2021/05/20 00:41:32;;;;;;;3.13;2.92;;;;;;;13.47;60.99;101157.19;694651;28;22424;-63
2021/05/20 00:41:53;;;;;;;3.10;2.90;;;;;;;13.46;61.10;101156.38;694919;28;23464;-63
2021/05/20 00:42:15;;;;;;;3.10;2.90;;;;;;;13.46;61.13;101153.66;694492;28;24133;-63
2021/05/20 00:42:36;;;;;;;3.00;2.80;;;;;;;13.45;60.78;101157.38;694047;28;47427;-63
2021/05/20 00:42:58;;;;;;;3.33;3.03;;;;;;;13.45;60.87;101156.56;696164;28;853;-63
2021/05/20 00:43:19;;;;;;;3.15;2.95;;;;;;;13.45;60.58;101161.97;694767;28;23417;-63
2021/05/20 00:43:41;;;;;;;3.05;2.85;;;;;;;13.44;60.99;101154.84;695389;28;1389;-63
2021/05/20 00:44:03;;;;;;;2.80;2.60;;;;;;;13.43;60.91;101159.44;696012;28;854;-63
2021/05/20 00:44:24;;;;;;;2.95;2.75;;;;;;;13.42;61.17;101155.03;695058;28;27181;-63
2021/05/20 00:44:52;;;;;;;3.17;2.85;;;;;;;13.44;60.79;101160.28;695506;28;18091;-63
2021/05/20 00:45:15;;;;;;;3.13;2.92;;;;;;;13.42;61.04;101163.19;691618;28;128094;-63
2021/05/20 00:45:36;;;;;;;3.00;2.80;;;;;;;13.44;60.88;101160.28;693032;28;70301;-64
2021/05/20 00:45:58;;;;;;;3.10;2.90;;;;;;;13.42;61.37;101160.47;694203;28;46334;-62
2021/05/20 00:46:19;;;;;;;3.17;2.97;;;;;;;13.42;61.36;101167.78;695491;28;23469;-63
2021/05/20 00:46:40;;;;;;;3.08;2.88;;;;;;;13.41;61.39;101160.66;695296;28;23491;-63
2021/05/20 00:47:02;;;;;;;2.97;2.78;;;;;;;13.41;61.21;101161.47;695591;28;7769;-63
2021/05/20 00:47:26;;;;;;;3.00;2.80;;;;;;;13.40;61.46;101164.38;693913;28;21597;-63
2021/05/20 00:47:47;;;;;;;2.58;2.47;;;;;;;13.41;61.18;101163.38;691767;28;115129;-63
2021/05/20 00:48:08;;;;;;;2.78;2.60;;;;;;;13.40;61.45;101158.94;694766;28;22632;-63
2021/05/20 00:48:30;;;;;;;3.08;2.88;;;;;;;13.40;61.05;101162.53;694884;28;23428;-62
2021/05/20 00:48:51;;;;;;;2.77;2.67;;;;;;;13.41;61.12;101163.38;693733;28;46374;-63
2021/05/20 00:49:12;;;;;;;3.20;2.65;;;;;;;13.42;60.90;101159.63;692115;28;46366;-63
2021/05/20 00:49:35;;;;;;;3.00;2.78;;;;;;;13.43;61.05;101169.44;694528;28;22406;-63
2021/05/20 00:49:57;;;;;;;3.28;2.97;;;;;;;13.42;60.67;101165.06;693395;28;68324;-63
2021/05/20 00:50:18;;;;;;;3.10;2.90;;;;;;;13.40;61.13;101169.81;695019;28;23441;-63
2021/05/20 00:50:39;;;;;;;2.78;2.67;;;;;;;13.41;60.73;101163.38;694855;28;23465;-63
2021/05/20 00:51:00;;;;;;;2.78;2.67;;;;;;;13.40;60.66;101167.09;695218;28;22511;-63
2021/05/20 00:51:21;;;;;;;3.00;2.80;;;;;;;13.39;61.10;101163.53;695411;28;23491;-62
2021/05/20 00:51:45;;;;;;;2.90;2.70;;;;;;;13.39;60.94;101168.13;694577;28;46543;-63
2021/05/20 00:52:06;;;;;;;3.10;2.88;;;;;;;13.38;61.21;101169.16;692085;28;91436;-63
2021/05/20 00:52:27;;;;;;;2.90;2.70;;;;;;;13.37;61.48;101162.03;695428;28;22383;-63
2021/05/20 00:52:49;;;;;;;2.72;2.53;;;;;;;13.36;61.29;101165.78;695478;28;21598;-63
2021/05/20 00:53:11;;;;;;;3.50;2.50;;;;;;;13.35;61.62;101164.94;694660;28;46442;-63
2021/05/20 00:53:32;;;;;;;3.50;2.55;;;;;;;13.34;61.27;101174.94;695002;28;23394;-63
2021/05/20 00:53:53;;;;;;;2.90;2.70;;;;;;;13.34;61.37;101166.81;694976;28;23485;-63
2021/05/20 00:54:14;;;;;;;2.92;2.72;;;;;;;13.34;61.26;101164.09;695555;28;24355;-63
2021/05/20 00:54:35;;;;;;;3.00;2.80;;;;;;;13.34;61.26;101169.53;694073;28;46335;-63
2021/05/20 00:54:58;;;;;;;3.10;2.90;;;;;;;13.34;61.58;101171.41;694799;28;22403;-63
2021/05/20 00:55:20;;;;;;;3.13;2.83;;;;;;;13.34;61.35;101163.28;694472;28;46354;-63
2021/05/20 00:55:42;;;;;;;3.00;2.80;;;;;;;13.34;61.32;101165.97;692725;28;70353;-63
2021/05/20 00:56:04;;;;;;;2.90;2.70;;;;;;;13.34;61.05;101168.69;694354;28;46461;-63
2021/05/20 00:56:26;;;;;;;2.75;2.65;;;;;;;13.34;61.12;101169.53;694864;28;41585;-63
2021/05/20 00:56:47;;;;;;;2.67;2.58;;;;;;;13.36;61.09;101169.34;694779;28;21560;-63
2021/05/20 00:57:10;;;;;;;2.70;2.60;;;;;;;13.36;60.71;101168.50;693404;28;46254;-63
2021/05/20 00:57:32;;;;;;;2.90;2.70;;;;;;;13.34;60.85;101166.81;693527;28;78006;-63
2021/05/20 00:57:53;;;;;;;3.00;2.60;;;;;;;13.36;60.42;101165.78;695007;28;23441;-63
2021/05/20 00:58:15;;;;;;;2.80;2.55;;;;;;;13.34;60.71;101163.28;694290;28;20990;-63
2021/05/20 00:58:36;;;;;;;2.80;2.60;;;;;;;13.35;60.74;101167.66;693962;28;44787;-63
2021/05/20 00:58:57;;;;;;;3.00;2.78;;;;;;;13.35;60.83;101170.34;692710;28;40089;-63
2021/05/20 00:59:19;;;;;;;3.20;2.90;;;;;;;13.35;60.59;101162.22;694007;28;22404;-63
2021/05/20 00:59:40;;;;;;;2.95;2.70;;;;;;;13.34;60.72;101169.53;694832;28;14659;-63
2021/05/20 01:00:05;;;;;;;3.28;2.40;;;;;;;13.35;60.69;101170.34;695604;28;1585;-63
2021/05/20 01:00:27;;;;;;;2.90;2.67;;;;;;;13.36;60.46;101166.63;691180;28;137294;-63
2021/05/20 01:00:50;;;;;;;3.42;2.95;;;;;;;13.36;60.87;101172.06;694141;28;24458;-63
2021/05/20 01:01:11;;;;;;;3.45;2.70;;;;;;;13.36;60.93;101166.63;694843;28;34178;-63
2021/05/20 01:01:36;;;;;;;3.10;2.80;;;;;;;13.36;60.43;101169.34;694745;28;14938;-63
2021/05/20 01:01:57;;;;;;;2.97;2.78;;;;;;;13.39;60.59;101174.41;693917;28;44216;-63
2021/05/20 01:02:19;;;;;;;2.95;2.75;;;;;;;13.39;60.47;101174.41;694564;28;23443;-63
2021/05/20 01:02:41;;;;;;;2.88;2.67;;;;;;;13.38;60.07;101170.00;695254;28;32871;-63
2021/05/20 01:03:02;;;;;;;2.70;2.60;;;;;;;13.39;59.94;101168.13;694438;28;44389;-63
2021/05/20 01:03:24;;;;;;;3.05;2.85;;;;;;;13.39;60.18;101171.69;694868;28;16556;-63
2021/05/20 01:03:45;;;;;;;2.70;2.60;;;;;;;13.41;59.51;101168.78;694100;28;46491;-63
2021/05/20 01:04:06;;;;;;;2.88;2.67;;;;;;;13.41;59.87;101171.50;694474;28;22478;-63
2021/05/20 01:04:27;;;;;;;2.90;2.70;;;;;;;13.39;59.87;101166.25;696533;28;1274;-63
2021/05/20 01:04:48;;;;;;;2.78;2.58;;;;;;;13.40;59.56;101169.81;694900;28;22444;-63
2021/05/20 01:05:12;;;;;;;2.65;2.55;;;;;;;13.40;59.77;101170.66;695380;28;22396;-63
2021/05/20 01:05:33;;;;;;;2.80;2.60;;;;;;;13.41;59.16;101166.06;692140;28;86721;-63
2021/05/20 01:05:54;;;;;;;2.90;2.70;;;;;;;13.41;59.52;101171.50;694817;28;21488;-63
2021/05/20 01:06:15;;;;;;;2.65;2.45;;;;;;;13.41;59.10;101176.94;694949;28;23485;-63
2021/05/20 01:06:36;;;;;;;3.00;2.70;;;;;;;13.40;59.52;101173.38;695385;28;24746;-63
2021/05/20 01:06:58;;;;;;;2.80;2.60;;;;;;;13.40;59.11;101169.81;696125;28;1235;-63
2021/05/20 01:07:21;;;;;;;3.38;2.45;;;;;;;13.38;59.21;101169.16;694964;28;1762;-63
2021/05/20 01:07:42;;;;;;;2.88;2.42;;;;;;;13.37;59.46;101167.47;695164;28;16617;-64
2021/05/20 01:08:04;;;;;;;2.65;2.45;;;;;;;13.38;59.50;101171.88;693731;28;22201;-63
2021/05/20 01:08:25;;;;;;;2.60;2.40;;;;;;;13.37;59.14;101164.75;693655;28;52445;-63
2021/05/20 01:08:46;;;;;;;2.60;2.40;;;;;;;13.38;59.08;101170.00;695202;28;22429;-63
2021/05/20 01:09:07;;;;;;;2.60;2.30;;;;;;;13.40;58.92;101172.53;695526;28;12209;-63
2021/05/20 01:09:29;;;;;;;2.63;2.42;;;;;;;13.40;58.76;101167.09;694714;28;23464;-63
2021/05/20 01:09:50;;;;;;;2.55;2.35;;;;;;;13.41;58.65;101171.50;694554;28;34327;-64
2021/05/20 01:10:12;;;;;;;2.67;2.45;;;;;;;13.41;59.13;101172.34;695189;28;1490;-63
2021/05/20 01:10:33;;;;;;;2.60;2.50;;;;;;;13.41;58.72;101171.50;694875;28;23524;-64
2021/05/20 01:10:54;;;;;;;2.33;2.22;;;;;;;13.41;59.06;101176.94;694930;28;18935;-63
2021/05/20 01:11:15;;;;;;;2.42;2.33;;;;;;;13.40;59.05;101175.22;694606;28;33950;-62
2021/05/20 01:11:37;;;;;;;2.70;2.50;;;;;;;13.39;58.86;101174.41;694168;28;23434;-62
2021/05/20 01:11:58;;;;;;;2.60;2.40;;;;;;;13.40;58.80;101178.81;695681;28;12346;-63
2021/05/20 01:12:19;;;;;;;2.67;2.47;;;;;;;13.39;58.66;101168.13;695258;28;18922;-63
2021/05/20 01:12:40;;;;;;;3.72;2.55;;;;;;;13.38;59.26;101169.16;695089;28;19199;-63
2021/05/20 01:13:01;;;;;;;2.88;2.58;;;;;;;13.38;58.90;101170.00;693977;28;44392;-63
2021/05/20 01:13:23;;;;;;;2.80;2.60;;;;;;;13.40;58.92;101172.53;694715;28;22399;-63
2021/05/20 01:13:44;;;;;;;2.50;2.30;;;;;;;13.40;59.25;101170.66;695274;28;19569;-63
2021/05/20 01:14:10;;;;;;;2.42;2.30;;;;;;;13.41;58.72;101174.22;695256;28;23519;-63
2021/05/20 01:14:37;;;;;;;2.70;2.50;;;;;;;13.41;59.18;101179.63;691802;28;121265;-63
2021/05/20 01:14:58;;;;;;;2.92;2.72;;;;;;;13.41;58.53;101175.03;690173;28;161977;-63
2021/05/20 01:15:22;;;;;;;2.65;2.45;;;;;;;13.41;58.75;101168.78;694990;28;35141;-63
2021/05/20 01:15:44;;;;;;;2.40;2.30;;;;;;;13.40;58.61;101170.66;693438;28;70458;-63
2021/05/20 01:16:09;;;;;;;2.50;2.40;;;;;;;13.40;58.87;101167.97;694487;28;47707;-64
2021/05/20 01:16:31;;;;;;;2.70;2.50;;;;;;;13.40;59.08;101176.09;690945;28;126325;-63
2021/05/20 01:16:52;;;;;;;2.53;2.42;;;;;;;13.41;58.65;101174.22;695241;28;23405;-63
2021/05/20 01:17:13;;;;;;;2.30;2.20;;;;;;;13.41;58.68;101172.34;695432;28;22544;-63
2021/05/20 01:17:34;;;;;;;2.47;2.38;;;;;;;13.42;58.16;101175.91;696218;28;1190;-63
2021/05/20 01:17:58;;;;;;;2.28;2.17;;;;;;;13.39;58.60;101171.69;695962;28;4564;-62
2021/05/20 01:18:19;;;;;;;2.53;2.33;;;;;;;13.40;58.14;101172.53;691994;28;15015;-63
2021/05/20 01:18:40;;;;;;;2.70;2.50;;;;;;;13.40;58.63;101170.66;693715;28;46346;-63
2021/05/20 01:19:01;;;;;;;2.60;2.50;;;;;;;13.41;58.35;101174.22;693833;28;23383;-63
2021/05/20 01:19:22;;;;;;;2.50;2.40;;;;;;;13.40;58.21;101169.81;693773;28;23523;-63
2021/05/20 01:19:45;;;;;;;2.20;2.10;;;;;;;13.40;58.10;101175.22;694999;28;21528;-63
2021/05/20 01:20:08;;;;;;;2.58;2.38;;;;;;;13.40;58.29;101170.66;693067;28;46397;-63
2021/05/20 01:20:31;;;;;;;2.92;2.50;;;;;;;13.39;58.18;101168.97;693716;28;67508;-63
2021/05/20 01:20:52;;;;;;;2.55;2.35;;;;;;;13.39;58.68;101170.84;693320;28;69636;-63
2021/05/20 01:21:15;;;;;;;2.70;2.50;;;;;;;13.38;58.51;101167.28;694672;28;21579;-63
2021/05/20 01:21:36;;;;;;;2.63;2.40;;;;;;;13.38;58.59;101177.28;692483;28;92456;-63
2021/05/20 01:21:57;;;;;;;2.57;2.30;;;;;;;13.37;58.86;101171.03;694592;28;45053;-63
2021/05/20 01:22:18;;;;;;;2.60;2.50;;;;;;;13.37;58.52;101168.31;692626;28;46382;-63
2021/05/20 01:22:47;;;;;;;2.53;2.33;;;;;;;13.37;58.67;101173.75;693563;28;61486;-63
2021/05/20 01:23:10;;;;;;;2.22;2.13;;;;;;;13.38;58.81;101171.88;695026;28;5965;-63
2021/05/20 01:23:31;;;;;;;2.88;2.40;;;;;;;13.38;58.22;101169.16;692851;28;31696;-63
2021/05/20 01:23:52;;;;;;;2.60;2.40;;;;;;;13.38;58.68;101177.28;693453;28;22146;-63
2021/05/20 01:24:13;;;;;;;2.13;2.03;;;;;;;13.37;58.65;101170.19;694539;28;1170;-64
2021/05/20 01:24:35;;;;;;;2.50;2.40;;;;;;;13.37;58.17;101176.47;693061;28;46024;-63
2021/05/20 01:24:56;;;;;;;2.50;2.40;;;;;;;13.37;58.50;101183.75;693617;28;23551;-63
2021/05/20 01:25:17;;;;;;;2.40;2.30;;;;;;;13.36;58.63;101174.78;693948;28;22398;-63
2021/05/20 01:25:40;;;;;;;2.50;2.40;;;;;;;13.37;58.48;101187.31;694391;28;20876;-63
2021/05/20 01:26:03;;;;;;;2.50;2.40;;;;;;;13.38;58.68;101174.59;693466;28;68357;-63
2021/05/20 01:26:25;;;;;;;2.60;2.40;;;;;;;13.39;58.40;101182.53;695278;28;13257;-63
2021/05/20 01:26:46;;;;;;;2.67;2.47;;;;;;;13.39;58.68;101184.41;694658;28;43813;-63
2021/05/20 01:27:08;;;;;;;2.40;2.30;;;;;;;13.39;58.39;101185.25;695249;28;23463;-63
2021/05/20 01:27:29;;;;;;;2.60;2.50;;;;;;;13.39;58.19;101189.84;693926;28;45253;-64
2021/05/20 01:27:51;;;;;;;2.30;2.20;;;;;;;13.38;58.37;101183.56;695291;28;23429;-64
2021/05/20 01:28:14;;;;;;;2.40;2.30;;;;;;;13.39;58.67;101187.97;694105;28;46347;-63
2021/05/20 01:28:35;;;;;;;2.20;2.10;;;;;;;13.38;58.66;101188.97;693931;28;55684;-64
2021/05/20 01:28:56;;;;;;;2.35;2.25;;;;;;;13.38;58.40;101193.56;694968;28;17103;-64
2021/05/20 01:29:18;;;;;;;2.50;2.30;;;;;;;13.39;58.92;101192.56;694843;28;11453;-64
2021/05/20 01:29:40;;;;;;;2.90;2.40;;;;;;;13.39;58.42;101190.69;693552;28;45589;-63
2021/05/20 01:30:01;;;;;;;2.30;2.20;;;;;;;13.40;58.39;101192.38;694549;28;35015;-63
2021/05/20 01:30:23;;;;;;;2.30;2.20;;;;;;;13.40;58.55;101195.09;695912;28;1264;-63
2021/05/20 01:30:46;;;;;;;2.53;2.42;;;;;;;13.39;58.36;101196.09;694688;28;23594;-63
2021/05/20 01:31:08;;;;;;;2.40;2.30;;;;;;;13.39;58.40;101196.09;693760;28;46340;-63
2021/05/20 01:31:30;;;;;;;2.40;2.30;;;;;;;13.39;58.31;101197.97;694323;28;53571;-63
2021/05/20 01:31:51;;;;;;;2.57;2.37;;;;;;;13.40;58.42;101199.66;693698;28;46707;-63
2021/05/20 01:32:12;;;;;;;2.20;2.10;;;;;;;13.39;57.75;101204.25;693425;28;46390;-63
2021/05/20 01:32:34;;;;;;;2.40;2.30;;;;;;;13.38;58.28;101196.28;694082;28;46486;-62
2021/05/20 01:32:55;;;;;;;2.33;2.22;;;;;;;13.36;58.07;101196.47;693920;28;45520;-63
2021/05/20 01:33:16;;;;;;;2.50;2.30;;;;;;;13.35;58.28;101200.19;695265;28;23430;-62
2021/05/20 01:33:37;;;;;;;2.50;2.30;;;;;;;13.36;58.37;101195.63;694919;28;23485;-63
2021/05/20 01:33:59;;;;;;;2.60;2.38;;;;;;;13.35;58.29;101197.50;694862;28;24343;-63
2021/05/20 01:34:20;;;;;;;2.40;2.30;;;;;;;13.36;58.34;101201.91;695294;28;21527;-63
2021/05/20 01:34:41;;;;;;;2.20;2.10;;;;;;;13.37;58.23;101200.03;695351;28;22432;-63
2021/05/20 01:35:03;;;;;;;2.30;2.20;;;;;;;13.37;58.35;101202.72;695230;28;21272;-63
2021/05/20 01:35:25;;;;;;;2.67;2.47;;;;;;;13.34;58.51;101202.09;693263;28;69460;-63
2021/05/20 01:35:47;;;;;;;2.40;2.20;;;;;;;13.34;58.45;101204.78;694156;28;47467;-63
2021/05/20 01:36:08;;;;;;;2.25;2.15;;;;;;;13.33;58.02;101197.66;694492;28;46693;-63
2021/05/20 01:36:30;;;;;;;2.55;2.35;;;;;;;13.32;58.14;101198.69;696028;28;1195;-62
2021/05/20 01:36:51;;;;;;;2.50;2.30;;;;;;;13.33;58.11;101203.09;693450;28;45230;-64
2021/05/20 01:37:12;;;;;;;2.55;2.45;;;;;;;13.33;58.47;101205.81;694423;28;12244;-63
2021/05/20 01:38:47;;;;;;;2.50;2.35;;;;;;;13.33;58.47;101202.25;691061;28;135115;-63
2021/05/20 01:39:08;;;;;;;2.42;2.22;;;;;;;13.32;58.35;101201.41;694873;28;22460;-62
2021/05/20 01:39:29;;;;;;;2.40;2.30;;;;;;;13.32;58.19;101200.53;694760;28;19441;-63
2021/05/20 01:39:50;;;;;;;2.47;2.38;;;;;;;13.31;58.24;101197.00;695306;28;23508;-62
2021/05/20 01:40:13;;;;;;;2.50;2.30;;;;;;;13.31;58.41;101197.00;695734;28;13587;-62
2021/05/20 01:40:35;;;;;;;2.20;2.10;;;;;;;13.33;58.33;101204.97;693208;28;61734;-63
2021/05/20 01:40:58;;;;;;;2.38;2.28;;;;;;;13.32;58.03;101203.25;695073;28;21548;-63
2021/05/20 01:41:19;;;;;;;2.40;2.30;;;;;;;13.33;57.98;101202.25;693484;28;57625;-63
2021/05/20 01:41:40;;;;;;;2.40;2.30;;;;;;;13.31;58.37;101199.69;694894;28;21607;-63
2021/05/20 01:42:02;;;;;;;2.38;2.28;;;;;;;13.29;58.27;101199.06;694575;28;44170;-63
2021/05/20 01:42:23;;;;;;;2.33;2.22;;;;;;;13.31;58.24;101204.28;694742;28;21677;-62
2021/05/20 01:42:44;;;;;;;2.30;2.17;;;;;;;13.30;58.05;101199.88;695218;28;23566;-64
2021/05/20 01:43:05;;;;;;;2.80;2.50;;;;;;;13.28;58.59;101196.53;695160;28;19907;-63